createdAt,value
2018-09-22T00:00:43.327Z,2.20
2018-09-22T00:03:15.622Z,2.33
2018-09-22T00:05:47.953Z,2.70
2018-09-22T00:08:19.980Z,2.07
2018-09-22T00:10:53.012Z,2.10
2018-09-22T00:13:25.342Z,1.87
2018-09-22T00:15:57.507Z,2.47
2018-09-22T00:18:29.971Z,1.60
2018-09-22T00:21:02.217Z,1.87
2018-09-22T00:23:35.015Z,2.47
2018-09-22T00:26:07.181Z,2.30
2018-09-22T00:28:39.587Z,2.30
2018-09-22T00:31:11.838Z,2.20
2018-09-22T00:33:43.917Z,2.30
2018-09-22T00:36:16.507Z,3.00
2018-09-22T00:38:48.854Z,2.53
2018-09-22T00:41:21.254Z,2.40
2018-09-22T00:43:53.377Z,2.57
2018-09-22T00:46:25.868Z,2.30
2018-09-22T00:48:58.120Z,2.07
2018-09-22T00:51:30.402Z,2.13
2018-09-22T00:54:02.269Z,2.93
2018-09-22T00:56:34.534Z,2.27
2018-09-22T00:59:07.036Z,2.30
2018-09-22T01:01:39.409Z,2.33
2018-09-22T01:04:11.812Z,2.70
2018-09-22T01:06:43.615Z,2.30
2018-09-22T01:09:15.796Z,2.30
2018-09-22T01:11:48.072Z,2.43
2018-09-22T01:14:20.500Z,2.60
2018-09-22T01:16:52.888Z,2.83
2018-09-22T01:19:25.347Z,2.40
2018-09-22T01:21:58.085Z,2.63
2018-09-22T01:24:30.377Z,2.90
2018-09-22T01:27:02.607Z,2.53
2018-09-22T01:29:34.946Z,2.60
2018-09-22T01:32:07.390Z,2.80
2018-09-22T01:34:39.459Z,3.00
2018-09-22T01:37:11.958Z,2.40
2018-09-22T01:39:44.336Z,2.43
2018-09-22T01:42:16.735Z,3.27
2018-09-22T01:44:48.874Z,2.63
2018-09-22T01:47:20.972Z,3.00
2018-09-22T01:49:53.329Z,3.30
2018-09-22T01:52:25.743Z,3.30
2018-09-22T01:54:58.265Z,3.60
2018-09-22T01:57:30.442Z,3.80
2018-09-22T02:00:02.634Z,3.87
2018-09-22T02:02:34.984Z,3.10
2018-09-22T02:05:06.791Z,3.17
2018-09-22T02:07:38.568Z,3.63
2018-09-22T02:10:16.495Z,4.50
2018-09-22T02:12:49.042Z,4.40
2018-09-22T02:15:21.403Z,4.10
2018-09-22T02:17:53.646Z,4.10
2018-09-22T02:20:25.926Z,4.50
2018-09-22T02:22:58.097Z,3.70
2018-09-22T02:25:30.218Z,4.40
2018-09-22T02:28:01.936Z,4.53
2018-09-22T02:30:33.598Z,3.40
2018-09-22T02:33:05.957Z,4.53
2018-09-22T02:35:38.030Z,3.33
2018-09-22T02:38:10.526Z,3.13
2018-09-22T02:40:43.042Z,3.63
2018-09-22T02:43:15.141Z,3.60
2018-09-22T02:45:46.938Z,3.47
2018-09-22T02:48:18.699Z,3.50
2018-09-22T02:50:50.454Z,3.37
2018-09-22T02:53:22.715Z,3.20
2018-09-22T02:55:54.823Z,3.87
2018-09-22T02:58:27.885Z,3.97
2018-09-22T03:01:00.429Z,3.37
2018-09-22T03:03:33.169Z,3.50
2018-09-22T03:06:05.313Z,3.70
2018-09-22T03:08:38.185Z,3.77
2018-09-22T03:11:10.113Z,3.73
2018-09-22T03:13:42.646Z,3.13
2018-09-22T03:16:14.375Z,3.90
2018-09-22T03:18:46.962Z,3.00
2018-09-22T03:21:19.320Z,3.50
2018-09-22T03:23:52.334Z,4.47
2018-09-22T03:26:24.094Z,4.47
2018-09-22T03:28:56.387Z,3.00
2018-09-22T03:31:28.868Z,3.53
2018-09-22T03:34:01.283Z,3.27
2018-09-22T03:36:33.437Z,3.87
2018-09-22T03:39:06.567Z,4.30
2018-09-22T03:41:38.849Z,3.97
2018-09-22T03:44:11.619Z,3.90
2018-09-22T03:46:44.099Z,4.37
2018-09-22T03:49:16.335Z,3.90
2018-09-22T03:51:48.474Z,4.57
2018-09-22T03:54:21.099Z,4.63
2018-09-22T03:56:52.837Z,4.63
2018-09-22T03:59:24.745Z,4.50
2018-09-22T04:01:56.701Z,4.40
2018-09-22T04:04:29.259Z,4.80
2018-09-22T04:07:01.442Z,5.03
2018-09-22T04:09:33.949Z,5.23
2018-09-22T04:12:06.494Z,5.20
2018-09-22T04:14:38.845Z,4.47
2018-09-22T04:17:10.964Z,4.30
2018-09-22T04:19:42.731Z,5.13
2018-09-22T04:22:14.478Z,4.60
2018-09-22T04:24:46.288Z,4.60
2018-09-22T04:27:18.592Z,3.77
2018-09-22T04:29:50.969Z,4.00
2018-09-22T04:32:23.285Z,4.07
2018-09-22T04:34:55.313Z,4.00
2018-09-22T04:37:27.029Z,3.53
2018-09-22T04:40:00.213Z,3.50
2018-09-22T04:42:32.529Z,3.80
2018-09-22T04:45:04.909Z,3.10
2018-09-22T04:47:36.889Z,3.90
2018-09-22T04:50:09.071Z,2.90
2018-09-22T04:52:41.497Z,1.83
2018-09-22T04:55:13.866Z,2.07
2018-09-22T04:57:46.267Z,2.43
2018-09-22T05:00:18.615Z,1.67
2018-09-22T05:02:51.009Z,1.87
2018-09-22T05:05:23.120Z,1.60
2018-09-22T05:07:55.496Z,2.00
2018-09-22T05:10:27.903Z,1.67
2018-09-22T05:13:00.104Z,1.77
2018-09-22T05:15:32.269Z,2.33
2018-09-22T05:18:04.599Z,2.10
2018-09-22T05:20:36.985Z,2.10
2018-09-22T05:23:09.144Z,1.93
2018-09-22T05:25:41.337Z,2.10
2018-09-22T05:28:13.453Z,2.23
2018-09-22T05:30:45.810Z,2.00
2018-09-22T05:33:18.479Z,1.70
2018-09-22T05:35:50.995Z,1.67
2018-09-22T05:38:23.401Z,1.90
2018-09-22T05:40:55.702Z,1.70
2018-09-22T05:43:27.861Z,1.33
2018-09-22T05:45:59.977Z,1.60
2018-09-22T05:48:32.068Z,1.70
2018-09-22T05:51:04.973Z,1.90
2018-09-22T05:53:37.345Z,1.17
2018-09-22T05:56:09.354Z,2.10
2018-09-22T05:58:41.716Z,1.70
2018-09-22T06:01:14.040Z,1.70
2018-09-22T06:03:45.897Z,2.13
2018-09-22T06:06:17.857Z,1.97
2018-09-22T06:08:50.177Z,1.87
2018-09-22T06:11:22.319Z,1.67
2018-09-22T06:13:54.401Z,2.00
2018-09-22T06:16:27.219Z,1.80
2018-09-22T06:18:59.257Z,1.30
2018-09-22T06:21:31.593Z,1.80
2018-09-22T06:24:03.990Z,1.47
2018-09-22T06:26:36.227Z,1.80
2018-09-22T06:29:09.012Z,1.83
2018-09-22T06:31:41.598Z,1.73
2018-09-22T06:34:13.982Z,1.77
2018-09-22T06:36:46.350Z,1.27
2018-09-22T06:39:18.485Z,1.77
2018-09-22T06:41:50.782Z,2.07
2018-09-22T06:44:23.123Z,2.00
2018-09-22T06:46:55.297Z,1.57
2018-09-22T06:49:27.467Z,1.43
2018-09-22T06:51:59.791Z,1.70
2018-09-22T06:54:31.761Z,2.07
2018-09-22T06:57:03.894Z,1.33
2018-09-22T06:59:35.942Z,1.70
2018-09-22T07:02:08.171Z,1.73
2018-09-22T07:04:40.741Z,2.07
2018-09-22T07:07:12.952Z,1.90
2018-09-22T07:09:45.131Z,1.77
2018-09-22T07:12:17.325Z,1.60
2018-09-22T07:14:49.885Z,1.90
2018-09-22T07:17:22.773Z,1.60
2018-09-22T07:19:55.116Z,1.70
2018-09-22T07:22:32.049Z,1.87
2018-09-22T07:25:04.369Z,1.60
2018-09-22T07:27:36.361Z,1.80
2018-09-22T07:30:08.816Z,2.50
2018-09-22T07:32:40.930Z,2.40
2018-09-22T07:35:13.789Z,2.20
2018-09-22T07:37:45.875Z,2.23
2018-09-22T07:40:18.606Z,2.43
2018-09-22T07:42:50.889Z,2.83
2018-09-22T07:45:23.643Z,2.67
2018-09-22T07:47:56.116Z,2.57
2018-09-22T07:50:28.349Z,1.63
2018-09-22T07:53:00.613Z,2.17
2018-09-22T07:55:32.914Z,2.33
2018-09-22T07:58:05.307Z,2.40
2018-09-22T08:00:37.650Z,2.63
2018-09-22T08:03:10.882Z,2.63
2018-09-22T08:05:43.205Z,2.70
2018-09-22T08:08:15.468Z,2.80
2018-09-22T08:10:47.661Z,2.63
2018-09-22T08:13:20.006Z,2.70
2018-09-22T08:15:52.352Z,2.47
2018-09-22T08:18:24.761Z,3.20
2018-09-22T08:20:57.255Z,2.93
2018-09-22T08:23:29.512Z,3.37
2018-09-22T08:26:01.712Z,3.03
2018-09-22T08:28:34.061Z,3.37
2018-09-22T08:31:06.419Z,3.03
2018-09-22T08:33:38.411Z,2.90
2018-09-22T08:36:10.865Z,2.70
2018-09-22T08:38:43.461Z,2.73
2018-09-22T08:41:16.018Z,2.80
2018-09-22T08:43:48.211Z,2.73
2018-09-22T08:46:20.345Z,2.87
2018-09-22T08:48:53.005Z,2.80
2018-09-22T08:51:25.082Z,2.40
2018-09-22T08:53:57.885Z,2.83
2018-09-22T08:56:30.050Z,2.63
2018-09-22T08:59:03.349Z,2.60
2018-09-22T09:01:35.714Z,3.17
2018-09-22T09:04:08.178Z,2.80
2018-09-22T09:06:40.455Z,3.13
2018-09-22T09:09:12.814Z,2.90
2018-09-22T09:11:45.302Z,2.83
2018-09-22T09:14:17.733Z,2.70
2018-09-22T09:16:50.203Z,2.20
2018-09-22T09:19:22.598Z,1.80
2018-09-22T09:21:54.793Z,2.40
2018-09-22T09:24:26.987Z,2.37
2018-09-22T09:26:59.184Z,2.23
2018-09-22T09:29:31.532Z,2.30
2018-09-22T09:32:04.061Z,2.13
2018-09-22T09:34:36.034Z,2.23
2018-09-22T09:37:08.124Z,1.80
2018-09-22T09:39:40.260Z,2.70
2018-09-22T09:42:12.855Z,2.30
2018-09-22T09:44:44.599Z,2.37
2018-09-22T09:47:16.661Z,2.27
2018-09-22T09:49:48.837Z,2.07
2018-09-22T09:52:21.383Z,1.80
2018-09-22T09:54:53.582Z,2.30
2018-09-22T09:57:25.957Z,2.13
2018-09-22T09:59:58.286Z,2.10
2018-09-22T10:02:30.450Z,1.77
2018-09-22T10:05:02.653Z,1.83
2018-09-22T10:07:34.806Z,2.07
2018-09-22T10:10:07.325Z,2.17
2018-09-22T10:12:39.555Z,2.37
2018-09-22T10:15:11.731Z,2.60
2018-09-22T10:17:43.960Z,2.00
2018-09-22T10:20:16.648Z,1.70
2018-09-22T10:22:48.934Z,2.30
2018-09-22T10:25:21.296Z,2.27
2018-09-22T10:27:53.539Z,2.17
2018-09-22T10:30:25.778Z,2.40
2018-09-22T10:32:58.142Z,2.30
2018-09-22T10:35:30.664Z,2.23
2018-09-22T10:38:02.811Z,2.50
2018-09-22T10:40:35.221Z,2.27
2018-09-22T10:43:07.547Z,2.30
2018-09-22T10:45:40.025Z,2.33
2018-09-22T10:48:12.343Z,1.83
2018-09-22T10:50:45.390Z,2.20
2018-09-22T10:53:17.650Z,2.83
2018-09-22T10:55:50.197Z,2.60
2018-09-22T10:58:22.304Z,2.60
2018-09-22T11:00:54.836Z,2.90
2018-09-22T11:03:28.323Z,2.10
2018-09-22T11:06:00.424Z,2.53
2018-09-22T11:08:32.940Z,2.03
2018-09-22T11:11:05.128Z,2.40
2018-09-22T11:13:37.305Z,2.23
2018-09-22T11:16:09.707Z,2.13
2018-09-22T11:18:42.237Z,2.13
2018-09-22T11:21:14.407Z,2.27
2018-09-22T11:23:46.764Z,2.60
2018-09-22T11:26:19.228Z,1.93
2018-09-22T11:28:51.656Z,2.00
2018-09-22T11:31:23.852Z,2.07
2018-09-22T11:33:55.950Z,2.00
2018-09-22T11:36:28.521Z,2.40
2018-09-22T11:39:00.877Z,1.90
2018-09-22T11:41:33.066Z,1.97
2018-09-22T11:44:05.419Z,1.90
2018-09-22T11:46:38.321Z,1.87
2018-09-22T11:49:10.397Z,1.70
2018-09-22T11:51:42.853Z,2.07
2018-09-22T11:54:15.353Z,2.27
2018-09-22T11:56:47.074Z,2.53
2018-09-22T11:59:19.409Z,2.27
2018-09-22T12:01:51.671Z,2.37
2018-09-22T12:04:24.192Z,2.37
2018-09-22T12:06:56.369Z,2.07
2018-09-22T12:09:28.290Z,2.13
2018-09-22T12:12:00.527Z,2.40
2018-09-22T12:14:32.913Z,2.63
2018-09-22T12:17:05.061Z,2.43
2018-09-22T12:19:37.391Z,2.67
2018-09-22T12:22:09.806Z,2.80
2018-09-22T12:24:42.780Z,2.50
2018-09-22T12:27:15.178Z,2.93
2018-09-22T12:29:47.276Z,2.50
2018-09-22T12:32:19.421Z,3.87
2018-09-22T12:34:51.615Z,2.50
2018-09-22T12:37:23.992Z,2.80
2018-09-22T12:39:56.154Z,3.00
2018-09-22T12:42:28.575Z,2.80
2018-09-22T12:45:00.661Z,2.60
2018-09-22T12:47:32.964Z,2.97
2018-09-22T12:50:05.410Z,3.00
2018-09-22T12:52:37.713Z,2.23
2018-09-22T12:55:10.075Z,2.60
2018-09-22T12:57:42.286Z,2.20
2018-09-22T13:00:14.632Z,2.30
2018-09-22T13:02:46.836Z,1.97
2018-09-22T13:05:19.441Z,2.20
2018-09-22T13:07:51.659Z,3.33
2018-09-22T13:10:24.409Z,2.67
2018-09-22T13:12:56.584Z,2.50
2018-09-22T13:15:29.143Z,2.53
2018-09-22T13:18:01.339Z,2.40
2018-09-22T13:20:33.772Z,2.27
2018-09-22T13:23:06.011Z,2.40
2018-09-22T13:25:38.524Z,2.23
2018-09-22T13:28:10.669Z,2.33
2018-09-22T13:30:43.238Z,2.50
2018-09-22T13:33:15.357Z,1.83
2018-09-22T13:35:47.921Z,2.50
2018-09-22T13:38:20.321Z,2.50
2018-09-22T13:40:52.889Z,2.50
2018-09-22T13:43:25.455Z,2.00
2018-09-22T13:45:57.482Z,2.10
2018-09-22T13:48:29.821Z,2.47
2018-09-22T13:51:02.116Z,2.10
2018-09-22T13:53:34.125Z,2.17
2018-09-22T13:56:06.377Z,2.10
2018-09-22T13:58:38.456Z,2.40
2018-09-22T14:01:10.972Z,2.33
2018-09-22T14:03:43.061Z,2.93
2018-09-22T14:06:15.174Z,3.13
2018-09-22T14:08:47.331Z,2.97
2018-09-22T14:11:19.641Z,3.40
2018-09-22T14:13:51.512Z,3.50
2018-09-22T14:16:23.604Z,2.97
2018-09-22T14:18:56.186Z,3.33
2018-09-22T14:21:28.588Z,3.80
2018-09-22T14:24:01.359Z,3.20
2018-09-22T14:26:33.497Z,3.00
2018-09-22T14:29:05.715Z,2.93
2018-09-22T14:31:38.241Z,4.03
2018-09-22T14:34:10.990Z,3.80
2018-09-22T14:36:43.211Z,3.30
2018-09-22T14:39:15.999Z,3.67
2018-09-22T14:41:48.035Z,3.20
2018-09-22T14:44:20.239Z,3.10
2018-09-22T14:46:52.438Z,3.07
2018-09-22T14:49:24.753Z,2.87
2018-09-22T14:51:57.547Z,2.33
2018-09-22T14:54:30.120Z,3.00
2018-09-22T14:57:02.494Z,2.10
2018-09-22T14:59:34.674Z,2.00
2018-09-22T15:02:07.335Z,2.10
2018-09-22T15:04:40.056Z,2.10
2018-09-22T15:07:12.676Z,1.70
2018-09-22T15:09:45.037Z,2.40
2018-09-22T15:12:17.533Z,2.50
2018-09-22T15:14:49.908Z,1.50
2018-09-22T15:17:22.289Z,1.70
2018-09-22T15:19:54.565Z,2.33
2018-09-22T15:22:26.782Z,1.73
2018-09-22T15:24:59.540Z,2.10
2018-09-22T15:27:32.056Z,2.00
2018-09-22T15:30:04.336Z,2.27
2018-09-22T15:32:36.753Z,1.90
2018-09-22T15:35:09.362Z,1.80
2018-09-22T15:37:41.689Z,1.90
2018-09-22T15:40:14.678Z,1.97
2018-09-22T15:42:47.278Z,1.60
2018-09-22T15:45:19.602Z,2.03
2018-09-22T15:47:51.930Z,1.87
2018-09-22T15:50:23.716Z,1.97
2018-09-22T15:52:55.854Z,2.07
2018-09-22T15:55:28.042Z,1.77
2018-09-22T15:58:00.405Z,2.07
2018-09-22T16:00:32.447Z,1.83
2018-09-22T16:03:05.215Z,2.07
2018-09-22T16:05:37.814Z,1.47
2018-09-22T16:08:10.155Z,1.80
2018-09-22T16:10:42.761Z,1.53
2018-09-22T16:13:15.126Z,1.60
2018-09-22T16:15:48.711Z,1.80
2018-09-22T16:18:22.558Z,2.87
2018-09-22T16:20:55.001Z,1.90
2018-09-22T16:23:27.260Z,1.70
2018-09-22T16:25:59.669Z,1.70
2018-09-22T16:28:31.879Z,1.67
2018-09-22T16:31:04.112Z,1.80
2018-09-22T16:33:36.495Z,2.10
2018-09-22T16:36:08.633Z,1.80
2018-09-22T16:38:40.998Z,2.13
2018-09-22T16:41:13.183Z,1.70
2018-09-22T16:43:45.336Z,1.63
2018-09-22T16:46:17.716Z,1.70
2018-09-22T16:48:49.937Z,1.80
2018-09-22T16:51:22.306Z,1.90
2018-09-22T16:53:54.603Z,1.87
2018-09-22T16:56:26.602Z,2.00
2018-09-22T16:58:58.752Z,1.90
2018-09-22T17:01:30.869Z,1.93
2018-09-22T17:04:03.174Z,2.20
2018-09-22T17:06:35.403Z,1.40
2018-09-22T17:09:08.832Z,1.70
2018-09-22T17:11:40.972Z,1.87
2018-09-22T17:14:12.826Z,1.83
2018-09-22T17:16:45.626Z,1.63
2018-09-22T17:19:17.907Z,1.47
2018-09-22T17:21:50.232Z,2.10
2018-09-22T17:24:23.077Z,1.57
2018-09-22T17:26:55.221Z,1.87
2018-09-22T17:29:27.571Z,2.00
2018-09-22T17:31:59.692Z,1.60
2018-09-22T17:34:31.826Z,1.50
2018-09-22T17:37:04.973Z,1.67
2018-09-22T17:39:37.950Z,1.77
2018-09-22T17:42:10.753Z,2.07
2018-09-22T17:44:43.023Z,1.90
2018-09-22T17:47:15.166Z,2.07
2018-09-22T17:49:47.711Z,1.27
2018-09-22T17:52:19.971Z,1.53
2018-09-22T17:54:52.449Z,1.30
2018-09-22T17:57:24.699Z,1.27
2018-09-22T17:59:57.178Z,1.70
2018-09-22T18:02:29.411Z,2.00
2018-09-22T18:05:01.772Z,1.47
2018-09-22T18:07:33.932Z,1.60
2018-09-22T18:10:06.526Z,1.67
2018-09-22T18:12:38.893Z,1.70
2018-09-22T18:15:10.989Z,1.40
2018-09-22T18:17:43.450Z,1.33
2018-09-22T18:20:15.798Z,2.07
2018-09-22T18:22:47.869Z,1.23
2018-09-22T18:25:20.373Z,1.00
2018-09-22T18:27:53.276Z,1.90
2018-09-22T18:30:25.590Z,2.00
2018-09-22T18:32:58.015Z,1.73
2018-09-22T18:35:30.098Z,1.40
2018-09-22T18:38:02.272Z,1.60
2018-09-22T18:40:34.650Z,1.30
2018-09-22T18:43:07.273Z,1.50
2018-09-22T18:45:40.249Z,1.53
2018-09-22T18:48:12.917Z,1.63
2018-09-22T18:50:46.322Z,1.43
2018-09-22T18:53:18.742Z,1.77
2018-09-22T18:55:51.303Z,1.97
2018-09-22T18:58:24.540Z,1.73
2018-09-22T19:00:56.932Z,2.10
2018-09-22T19:03:29.264Z,2.00
2018-09-22T19:06:01.422Z,2.20
2018-09-22T19:08:34.024Z,2.00
2018-09-22T19:11:06.151Z,1.67
2018-09-22T19:13:47.280Z,1.70
2018-09-22T19:16:23.116Z,2.00
2018-09-22T19:19:02.570Z,1.40
2018-09-22T19:21:39.126Z,1.90
2018-09-22T19:24:15.056Z,1.70
2018-09-22T19:26:50.687Z,1.40
2018-09-22T19:29:33.266Z,2.40
2018-09-22T19:32:15.290Z,1.67
2018-09-22T19:34:52.945Z,1.67
2018-09-22T19:37:43.456Z,1.30
2018-09-22T19:40:26.081Z,1.40
2018-09-22T19:43:02.687Z,1.27
2018-09-22T19:45:38.810Z,1.50
2018-09-22T19:48:20.845Z,1.47
2018-09-22T19:50:57.440Z,1.37
2018-09-22T19:53:29.819Z,2.10
2018-09-22T19:56:02.081Z,1.57
2018-09-22T19:58:34.591Z,1.33
2018-09-22T20:01:07.018Z,1.40
2018-09-22T20:03:39.829Z,1.40
2018-09-22T20:06:12.437Z,1.60
2018-09-22T20:08:45.199Z,2.40
2018-09-22T20:11:18.065Z,1.30
2018-09-22T20:13:51.264Z,1.73
2018-09-22T20:16:24.250Z,1.47
2018-09-22T20:18:56.562Z,1.50
2018-09-22T20:21:29.170Z,1.47
2018-09-22T20:24:01.394Z,1.80
2018-09-22T20:26:33.649Z,1.80
2018-09-22T20:29:05.973Z,1.50
2018-09-22T20:31:38.492Z,1.83
2018-09-22T20:34:10.857Z,1.47
2018-09-22T20:36:43.332Z,2.30
2018-09-22T20:39:15.712Z,1.53
2018-09-22T20:41:48.146Z,1.57
2018-09-22T20:44:20.489Z,1.23
2018-09-22T20:46:52.724Z,1.90
2018-09-22T20:49:25.258Z,2.00
2018-09-22T20:51:57.441Z,1.60
2018-09-22T20:54:29.832Z,2.20
2018-09-22T20:57:02.171Z,2.10
2018-09-22T20:59:34.539Z,1.63
2018-09-22T21:02:07.573Z,1.80
2018-09-22T21:04:39.923Z,2.13
2018-09-22T21:07:12.469Z,2.20
2018-09-22T21:09:44.897Z,1.93
2018-09-22T21:12:17.258Z,2.23
2018-09-22T21:14:50.170Z,2.00
2018-09-22T21:17:22.393Z,1.90
2018-09-22T21:19:54.733Z,2.50
2018-09-22T21:22:26.930Z,2.10
2018-09-22T21:24:59.155Z,1.60
2018-09-22T21:27:32.001Z,1.73
2018-09-22T21:30:04.363Z,1.23
2018-09-22T21:32:36.570Z,1.60
2018-09-22T21:35:08.707Z,1.37
2018-09-22T21:37:40.830Z,1.17
2018-09-22T21:40:13.348Z,1.90
2018-09-22T21:42:45.767Z,1.27
2018-09-22T21:45:18.110Z,1.53
2018-09-22T21:47:49.949Z,1.50
2018-09-22T21:50:22.281Z,1.50
2018-09-22T21:52:54.661Z,1.60
2018-09-22T21:55:26.938Z,1.40
2018-09-22T21:57:59.299Z,1.90
2018-09-22T22:00:31.563Z,1.30
2018-09-22T22:03:03.613Z,1.90
2018-09-22T22:05:35.987Z,1.60
2018-09-22T22:08:08.347Z,1.80
2018-09-22T22:10:40.635Z,1.53
2018-09-22T22:13:13.274Z,1.70
2018-09-22T22:15:45.458Z,1.60
2018-09-22T22:18:17.662Z,1.43
2018-09-22T22:20:50.010Z,1.60
2018-09-22T22:23:22.635Z,1.90
2018-09-22T22:25:54.775Z,2.00
2018-09-22T22:28:27.554Z,1.40
2018-09-22T22:31:00.179Z,1.47
2018-09-22T22:33:32.394Z,1.63
2018-09-22T22:36:04.561Z,1.43
2018-09-22T22:38:37.150Z,2.10
2018-09-22T22:41:09.251Z,1.50
2018-09-22T22:43:41.427Z,1.77
2018-09-22T22:46:14.660Z,2.00
2018-09-22T22:48:46.756Z,1.60
2018-09-22T22:51:19.089Z,1.90
2018-09-22T22:53:51.492Z,1.90
2018-09-22T22:56:24.673Z,2.20
2018-09-22T22:58:57.046Z,1.57
2018-09-22T23:01:29.759Z,1.87
2018-09-22T23:04:02.180Z,2.00
2018-09-22T23:06:35.905Z,2.07
2018-09-22T23:09:09.464Z,1.60
2018-09-22T23:11:41.894Z,1.83
2018-09-22T23:14:14.513Z,1.90
2018-09-22T23:16:47.263Z,1.40
2018-09-22T23:19:20.177Z,2.43
2018-09-22T23:21:52.348Z,1.80
2018-09-22T23:24:24.904Z,1.70
2018-09-22T23:26:56.861Z,2.13
2018-09-22T23:29:28.794Z,1.80
2018-09-22T23:32:01.446Z,1.80
2018-09-22T23:34:33.628Z,1.90
2018-09-22T23:37:05.964Z,1.90
2018-09-22T23:39:39.161Z,1.70
2018-09-22T23:42:11.437Z,1.40
2018-09-22T23:44:44.872Z,1.70
2018-09-22T23:47:16.781Z,1.60
2018-09-22T23:49:48.728Z,1.50
2018-09-22T23:52:21.268Z,2.00
2018-09-22T23:54:53.751Z,1.60
2018-09-22T23:57:26.511Z,2.83
2018-09-22T23:59:59.306Z,1.90
